Time;durP1;ratioP1;P1;durP2;ratioP2;P2;SDS_P1;SDS_P2;PMS_P1;PMS_P2;Temp;Humidity;BMP_temperature;BMP_pressure;BME280_temperature;BME280_humidity;BME280_pressure;Samples;Min_cycle;Max_cycle;Signal;HPM_P1;HPM_P2
2022/03/12 00:01:07;;;;;;;;;;;;;;;;;;5054626;28;19913;-24
2022/03/12 00:03:35;;;;;;;;;;;;;;;;;;5058128;28;19912;-25
2022/03/12 00:06:02;;;;;;;;;;;;;;;;;;5058400;28;19919;-24
2022/03/12 00:08:41;;;;;;;;;;;;;;;;;;5058977;28;19913;-25
2022/03/12 00:11:07;;;;;;;;;;;;;;;;;;5058630;28;19978;-25
2022/03/12 00:13:33;;;;;;;;;;;;;;;;;;5058222;28;19913;-24
2022/03/12 00:15:59;;;;;;;;;;;;;;;;;;5058363;28;19917;-25
2022/03/12 00:18:28;;;;;;;;;;;;;;;;;;5058258;28;20004;-24
2022/03/12 00:20:54;;;;;;;;;;;;;;;;;;5058458;28;20316;-25
2022/03/12 00:23:21;;;;;;;;;;;;;;;;;;5058168;28;19916;-25
2022/03/12 00:25:48;;;;;;;;;;;;;;;;;;5058186;28;19924;-25
2022/03/12 00:28:15;;;;;;;;;;;;;;;;;;5058396;28;19933;-25
2022/03/12 00:30:42;;;;;;;;;;;;;;;;;;5058018;28;19948;-25
2022/03/12 00:33:08;;;;;;;;;;;;;;;;;;5057998;28;19909;-25
2022/03/12 00:35:34;;;;;;;;;;;;;;;;;;5057818;28;19916;-25
2022/03/12 00:38:00;;;;;;;;;;;;;;;;;;5057962;28;19935;-25
2022/03/12 00:40:26;;;;;;;;;;;;;;;;;;5058168;28;19917;-25
2022/03/12 00:42:52;;;;;;;;;;;;;;;;;;5057843;28;19909;-25
2022/03/12 00:45:19;;;;;;;;;;;;;;;;;;5057717;28;19920;-25
2022/03/12 00:47:45;;;;;;;;;;;;;;;;;;5057813;28;20007;-26
2022/03/12 00:50:11;;;;;;;;;;;;;;;;;;5058189;28;19977;-25
2022/03/12 00:52:37;;;;;;;;;;;;;;;;;;5057566;28;19920;-25
2022/03/12 00:55:03;;;;;;;;;;;;;;;;;;5057623;28;20275;-25
2022/03/12 00:57:29;;;;;;;;;;;;;;;;;;5057556;28;19932;-25
2022/03/12 00:59:55;;;;;;;;;;;;;;;;;;5057554;28;19913;-25
2022/03/12 01:02:21;;;;;;;;;;;;;;;;;;5057450;28;19934;-25
2022/03/12 01:04:47;;;;;;;;;;;;;;;;;;5056405;28;20393;-25
2022/03/12 01:07:13;;;;;;;;;;;;;;;;;;5056397;28;19909;-25
2022/03/12 01:09:39;;;;;;;;;;;;;;;;;;5057243;28;20362;-25
2022/03/12 01:12:05;;;;;;;;;;;;;;;;;;5057257;28;20002;-25
2022/03/12 01:14:30;;;;;;;;;;;;;;;;;;5056812;28;19920;-25
2022/03/12 01:16:58;;;;;;;;;;;;;;;;;;5058015;28;19912;-25
2022/03/12 01:19:24;;;;;;;;;;;;;;;;;;5057152;28;19913;-25
2022/03/12 01:21:50;;;;;;;;;;;;;;;;;;5057085;28;20310;-25
2022/03/12 01:24:16;;;;;;;;;;;;;;;;;;5057137;28;19935;-25
2022/03/12 01:26:42;;;;;;;;;;;;;;;;;;5057051;28;19919;-25
2022/03/12 01:29:08;;;;;;;;;;;;;;;;;;5056870;28;19920;-25
2022/03/12 01:31:34;;;;;;;;;;;;;;;;;;5056970;28;20263;-24
2022/03/12 01:34:00;;;;;;;;;;;;;;;;;;5057087;28;20263;-25
2022/03/12 01:36:26;;;;;;;;;;;;;;;;;;5056841;28;19924;-25
2022/03/12 01:38:52;;;;;;;;;;;;;;;;;;5057065;28;19919;-25
2022/03/12 01:41:18;;;;;;;;;;;;;;;;;;5057034;28;19917;-25
2022/03/12 01:43:45;;;;;;;;;;;;;;;;;;5056442;28;19920;-25
2022/03/12 01:46:19;;;;;;;;;;;;;;;;;;5056873;28;20252;-25
2022/03/12 01:48:45;;;;;;;;;;;;;;;;;;5056893;28;20228;-25
2022/03/12 01:51:11;;;;;;;;;;;;;;;;;;5056789;28;19920;-25
2022/03/12 01:53:37;;;;;;;;;;;;;;;;;;5056470;28;19912;-26
2022/03/12 01:56:03;;;;;;;;;;;;;;;;;;5056413;28;19913;-26
2022/03/12 01:58:29;;;;;;;;;;;;;;;;;;5056477;28;19909;-25
2022/03/12 02:00:57;;;;;;;;;;;;;;;;;;5056619;28;19943;-25
2022/03/12 02:03:26;;;;;;;;;;;;;;;;;;5056142;28;19935;-25
2022/03/12 02:05:52;;;;;;;;;;;;;;;;;;5056580;28;19940;-26
2022/03/12 02:08:18;;;;;;;;;;;;;;;;;;5056733;28;19913;-25
2022/03/12 02:10:44;;;;;;;;;;;;;;;;;;5056442;28;19916;-26
2022/03/12 02:13:10;;;;;;;;;;;;;;;;;;5056127;28;19932;-25
2022/03/12 02:15:36;;;;;;;;;;;;;;;;;;5056346;28;19977;-25
2022/03/12 02:18:02;;;;;;;;;;;;;;;;;;5056599;28;19916;-26
2022/03/12 02:20:28;;;;;;;;;;;;;;;;;;5056276;28;20263;-25
2022/03/12 02:22:54;;;;;;;;;;;;;;;;;;5056178;28;20228;-25
2022/03/12 02:25:20;;;;;;;;;;;;;;;;;;5055268;28;20339;-25
2022/03/12 02:27:46;;;;;;;;;;;;;;;;;;5055885;28;19947;-25
2022/03/12 02:30:12;;;;;;;;;;;;;;;;;;5056038;28;19913;-25
2022/03/12 02:32:38;;;;;;;;;;;;;;;;;;5055867;28;20252;-25
2022/03/12 02:35:10;;;;;;;;;;;;;;;;;;5055516;28;19936;-26
2022/03/12 02:37:36;;;;;;;;;;;;;;;;;;5054377;28;19917;-25
2022/03/12 02:40:03;;;;;;;;;;;;;;;;;;5055672;28;19913;-25
2022/03/12 02:42:29;;;;;;;;;;;;;;;;;;5055592;28;19916;-25
2022/03/12 02:44:56;;;;;;;;;;;;;;;;;;5055571;28;19913;-25
2022/03/12 02:47:22;;;;;;;;;;;;;;;;;;5055481;28;20411;-25
2022/03/12 02:49:48;;;;;;;;;;;;;;;;;;5055412;28;20020;-25
2022/03/12 02:52:14;;;;;;;;;;;;;;;;;;5055933;28;19917;-26
2022/03/12 02:54:41;;;;;;;;;;;;;;;;;;5055404;28;19912;-25
2022/03/12 02:57:07;;;;;;;;;;;;;;;;;;5055572;28;20239;-26
2022/03/12 02:59:33;;;;;;;;;;;;;;;;;;5055329;28;20344;-25
2022/03/12 03:02:00;;;;;;;;;;;;;;;;;;5055165;28;19909;-25
2022/03/12 03:04:26;;;;;;;;;;;;;;;;;;5055210;28;19912;-25
2022/03/12 03:06:52;;;;;;;;;;;;;;;;;;5055261;28;19908;-25
2022/03/12 03:09:18;;;;;;;;;;;;;;;;;;5055338;28;19943;-27
2022/03/12 03:11:44;;;;;;;;;;;;;;;;;;5055488;28;19913;-25
2022/03/12 03:14:12;;;;;;;;;;;;;;;;;;5037546;28;19985;-25
2022/03/12 03:16:38;;;;;;;;;;;;;;;;;;5055304;28;19935;-25
2022/03/12 03:19:04;;;;;;;;;;;;;;;;;;5037600;28;19908;-25
2022/03/12 03:21:30;;;;;;;;;;;;;;;;;;5054998;28;20377;-25
2022/03/12 03:23:56;;;;;;;;;;;;;;;;;;5055276;28;19917;-25
2022/03/12 03:26:22;;;;;;;;;;;;;;;;;;5055235;28;19998;-25
2022/03/12 03:28:48;;;;;;;;;;;;;;;;;;5054821;28;19917;-25
2022/03/12 03:31:15;;;;;;;;;;;;;;;;;;5054913;28;19948;-25
2022/03/12 03:33:41;;;;;;;;;;;;;;;;;;5054815;28;20335;-25
2022/03/12 03:36:07;;;;;;;;;;;;;;;;;;5062882;28;19996;-25
2022/03/12 03:38:33;;;;;;;;;;;;;;;;;;5078753;28;20254;-25
2022/03/12 03:40:59;;;;;;;;;;;;;;;;;;5061430;28;19970;-26
2022/03/12 03:43:25;;;;;;;;;;;;;;;;;;5079301;28;19927;-25
2022/03/12 03:45:51;;;;;;;;;;;;;;;;;;5078971;28;19920;-25
2022/03/12 03:48:17;;;;;;;;;;;;;;;;;;5079497;28;19926;-25
2022/03/12 03:50:43;;;;;;;;;;;;;;;;;;5078785;28;20002;-25
2022/03/12 03:53:09;;;;;;;;;;;;;;;;;;5079020;28;19969;-25
2022/03/12 03:55:35;;;;;;;;;;;;;;;;;;5078800;28;19966;-26
2022/03/12 03:58:03;;;;;;;;;;;;;;;;;;5078981;28;19912;-25
2022/03/12 04:00:29;;;;;;;;;;;;;;;;;;5078616;28;19922;-25
2022/03/12 04:03:08;;;;;;;;;;;;;;;;;;5078859;28;20293;-25
2022/03/12 04:05:34;;;;;;;;;;;;;;;;;;5078886;28;19913;-25
2022/03/12 04:08:00;;;;;;;;;;;;;;;;;;5078834;28;19966;-26
2022/03/12 04:10:26;;;;;;;;;;;;;;;;;;5078353;28;19963;-26
2022/03/12 04:12:52;;;;;;;;;;;;;;;;;;5079408;28;20006;-25
2022/03/12 04:15:18;;;;;;;;;;;;;;;;;;5078355;28;20389;-26
2022/03/12 04:17:44;;;;;;;;;;;;;;;;;;5078396;28;19948;-25
2022/03/12 04:20:10;;;;;;;;;;;;;;;;;;5078221;28;19923;-25
2022/03/12 04:22:36;;;;;;;;;;;;;;;;;;5078204;28;19913;-26
2022/03/12 04:25:02;;;;;;;;;;;;;;;;;;5078317;28;20248;-25
2022/03/12 04:27:29;;;;;;;;;;;;;;;;;;5078200;28;19916;-26
2022/03/12 04:29:55;;;;;;;;;;;;;;;;;;5078312;28;19916;-25
2022/03/12 04:32:21;;;;;;;;;;;;;;;;;;5077972;28;19915;-25
2022/03/12 04:34:47;;;;;;;;;;;;;;;;;;5078308;28;19969;-25
2022/03/12 04:37:13;;;;;;;;;;;;;;;;;;5077834;28;20355;-25
2022/03/12 04:39:39;;;;;;;;;;;;;;;;;;5078264;28;20254;-26
2022/03/12 04:42:05;;;;;;;;;;;;;;;;;;5078355;28;19913;-23
2022/03/12 04:44:31;;;;;;;;;;;;;;;;;;5077799;28;20366;-21
2022/03/12 04:46:57;;;;;;;;;;;;;;;;;;5077789;28;19920;-26
2022/03/12 04:49:23;;;;;;;;;;;;;;;;;;5077083;28;20011;-23
2022/03/12 04:51:49;;;;;;;;;;;;;;;;;;5078210;28;19920;-22
2022/03/12 04:54:15;;;;;;;;;;;;;;;;;;5077905;28;19912;-23
2022/03/12 04:56:42;;;;;;;;;;;;;;;;;;5077472;28;19908;-26
2022/03/12 04:59:08;;;;;;;;;;;;;;;;;;5077524;28;19915;-24
2022/03/12 05:01:34;;;;;;;;;;;;;;;;;;5077383;28;19916;-22
2022/03/12 05:04:00;;;;;;;;;;;;;;;;;;5077199;28;20339;-24
2022/03/12 05:06:27;;;;;;;;;;;;;;;;;;5076993;28;19912;-24
2022/03/12 05:08:53;;;;;;;;;;;;;;;;;;5077638;28;19920;-22
2022/03/12 05:11:19;;;;;;;;;;;;;;;;;;5077101;28;19912;-21
2022/03/12 05:13:45;;;;;;;;;;;;;;;;;;5077039;28;19915;-21
2022/03/12 05:16:13;;;;;;;;;;;;;;;;;;5059480;28;19912;-22
2022/03/12 05:18:41;;;;;;;;;;;;;;;;;;5059306;28;20289;-22
2022/03/12 05:21:07;;;;;;;;;;;;;;;;;;5077043;28;19920;-22
2022/03/12 05:23:33;;;;;;;;;;;;;;;;;;5077143;28;19913;-22
2022/03/12 05:25:59;;;;;;;;;;;;;;;;;;5076881;28;19913;-21
2022/03/12 05:28:26;;;;;;;;;;;;;;;;;;5076846;28;19909;-21
2022/03/12 05:30:53;;;;;;;;;;;;;;;;;;5076775;28;20393;-21
2022/03/12 05:33:19;;;;;;;;;;;;;;;;;;5077092;28;20275;-22
2022/03/12 05:35:45;;;;;;;;;;;;;;;;;;5076784;28;20316;-22
2022/03/12 05:38:13;;;;;;;;;;;;;;;;;;5059115;28;19958;-22
2022/03/12 05:40:39;;;;;;;;;;;;;;;;;;5077024;28;19986;-25
2022/03/12 05:43:10;;;;;;;;;;;;;;;;;;5059149;28;20258;-24
2022/03/12 05:45:37;;;;;;;;;;;;;;;;;;5077037;28;19974;-24
2022/03/12 05:48:03;;;;;;;;;;;;;;;;;;5076544;28;19909;-23
2022/03/12 05:50:29;;;;;;;;;;;;;;;;;;5076594;28;19982;-22
2022/03/12 05:52:55;;;;;;;;;;;;;;;;;;5076578;28;20259;-22
2022/03/12 05:55:21;;;;;;;;;;;;;;;;;;5076892;28;19948;-24
2022/03/12 05:57:47;;;;;;;;;;;;;;;;;;5076191;28;20015;-22
2022/03/12 06:00:13;;;;;;;;;;;;;;;;;;5076596;28;19956;-24
2022/03/12 06:02:44;;;;;;;;;;;;;;;;;;5076265;28;20005;-24
2022/03/12 06:05:12;;;;;;;;;;;;;;;;;;5076232;28;20054;-22
2022/03/12 06:07:38;;;;;;;;;;;;;;;;;;5076684;28;19913;-23
2022/03/12 06:10:05;;;;;;;;;;;;;;;;;;5076069;28;19923;-22
2022/03/12 06:12:32;;;;;;;;;;;;;;;;;;5075957;28;19986;-27
2022/03/12 06:14:58;;;;;;;;;;;;;;;;;;5076345;28;20078;-22
2022/03/12 06:17:24;;;;;;;;;;;;;;;;;;5076282;28;20266;-22
2022/03/12 06:19:51;;;;;;;;;;;;;;;;;;5076605;28;19908;-22
2022/03/12 06:22:17;;;;;;;;;;;;;;;;;;5075860;28;19919;-22
2022/03/12 06:24:45;;;;;;;;;;;;;;;;;;5076345;28;19974;-25
2022/03/12 06:27:11;;;;;;;;;;;;;;;;;;5075666;28;19966;-23
2022/03/12 06:29:37;;;;;;;;;;;;;;;;;;5075606;28;20007;-23
2022/03/12 06:32:05;;;;;;;;;;;;;;;;;;5075728;28;20323;-23
2022/03/12 06:34:34;;;;;;;;;;;;;;;;;;5075599;28;19923;-25
2022/03/12 06:37:00;;;;;;;;;;;;;;;;;;5075436;28;19927;-27
2022/03/12 06:39:26;;;;;;;;;;;;;;;;;;5075767;28;19912;-24
2022/03/12 06:41:53;;;;;;;;;;;;;;;;;;5075541;28;19908;-22
2022/03/12 06:44:20;;;;;;;;;;;;;;;;;;5076102;28;19923;-22
2022/03/12 06:46:48;;;;;;;;;;;;;;;;;;5075493;28;19927;-23
2022/03/12 06:49:14;;;;;;;;;;;;;;;;;;5075341;28;19920;-23
2022/03/12 06:51:41;;;;;;;;;;;;;;;;;;5075658;28;19912;-23
2022/03/12 06:54:07;;;;;;;;;;;;;;;;;;5075357;28;20317;-22
2022/03/12 06:56:34;;;;;;;;;;;;;;;;;;5075888;28;20254;-22
2022/03/12 06:59:00;;;;;;;;;;;;;;;;;;5075669;28;19916;-22
2022/03/12 07:01:26;;;;;;;;;;;;;;;;;;5075442;28;20308;-23
2022/03/12 07:03:52;;;;;;;;;;;;;;;;;;5075224;28;19935;-21
2022/03/12 07:06:18;;;;;;;;;;;;;;;;;;5075612;28;19952;-21
2022/03/12 07:08:44;;;;;;;;;;;;;;;;;;5075032;28;19909;-21
2022/03/12 07:11:11;;;;;;;;;;;;;;;;;;5075285;28;20001;-21
2022/03/12 07:13:37;;;;;;;;;;;;;;;;;;5074865;28;19928;-21
2022/03/12 07:16:03;;;;;;;;;;;;;;;;;;5075277;28;19908;-21
2022/03/12 07:18:29;;;;;;;;;;;;;;;;;;5075286;28;20008;-22
2022/03/12 07:20:55;;;;;;;;;;;;;;;;;;5075135;28;19923;-21
2022/03/12 07:23:21;;;;;;;;;;;;;;;;;;5074713;28;19909;-21
2022/03/12 07:25:48;;;;;;;;;;;;;;;;;;5075311;28;20255;-23
2022/03/12 07:28:17;;;;;;;;;;;;;;;;;;5075229;28;19916;-21
2022/03/12 07:30:43;;;;;;;;;;;;;;;;;;5057096;28;19916;-22
2022/03/12 07:33:09;;;;;;;;;;;;;;;;;;5074972;28;20053;-26
2022/03/12 07:35:35;;;;;;;;;;;;;;;;;;5053735;28;19963;-24
2022/03/12 07:38:01;;;;;;;;;;;;;;;;;;5054880;28;19920;-21
2022/03/12 07:40:27;;;;;;;;;;;;;;;;;;5054777;28;19916;-23
2022/03/12 07:42:54;;;;;;;;;;;;;;;;;;5054573;28;19948;-27
2022/03/12 07:45:20;;;;;;;;;;;;;;;;;;5054757;28;19913;-22
2022/03/12 07:47:47;;;;;;;;;;;;;;;;;;5054805;28;19924;-21
2022/03/12 07:50:13;;;;;;;;;;;;;;;;;;5054890;28;20316;-21
2022/03/12 07:52:39;;;;;;;;;;;;;;;;;;5054607;28;20260;-21
2022/03/12 07:55:06;;;;;;;;;;;;;;;;;;5054899;28;20247;-21
2022/03/12 07:57:32;;;;;;;;;;;;;;;;;;5054839;28;20255;-21
2022/03/12 07:59:58;;;;;;;;;;;;;;;;;;5054544;28;20417;-22
2022/03/12 08:02:24;;;;;;;;;;;;;;;;;;5055029;28;19909;-23
2022/03/12 08:04:50;;;;;;;;;;;;;;;;;;5054531;28;19937;-21
2022/03/12 08:07:16;;;;;;;;;;;;;;;;;;5054864;28;19909;-22
2022/03/12 08:09:42;;;;;;;;;;;;;;;;;;5054676;28;20399;-22
2022/03/12 08:12:08;;;;;;;;;;;;;;;;;;5053385;28;19995;-21
2022/03/12 08:14:34;;;;;;;;;;;;;;;;;;5054499;28;20031;-23
2022/03/12 08:17:01;;;;;;;;;;;;;;;;;;5054507;28;19924;-21
2022/03/12 08:19:26;;;;;;;;;;;;;;;;;;5054334;28;19940;-21
2022/03/12 08:21:52;;;;;;;;;;;;;;;;;;5054256;28;19909;-23
2022/03/12 08:24:18;;;;;;;;;;;;;;;;;;5058300;28;19924;-22
2022/03/12 08:26:44;;;;;;;;;;;;;;;;;;5058354;28;19966;-22
2022/03/12 08:29:10;;;;;;;;;;;;;;;;;;5057114;28;19940;-22
2022/03/12 08:31:36;;;;;;;;;;;;;;;;;;5058594;28;19959;-23
2022/03/12 08:34:03;;;;;;;;;;;;;;;;;;5057925;28;19924;-23
2022/03/12 08:36:29;;;;;;;;;;;;;;;;;;5068531;28;19921;-22
2022/03/12 08:38:55;;;;;;;;;;;;;;;;;;5060324;28;19942;-22
2022/03/12 08:41:21;;;;;;;;;;;;;;;;;;5077872;28;19927;-22
2022/03/12 08:43:47;;;;;;;;;;;;;;;;;;5077811;28;19913;-24
2022/03/12 08:46:13;;;;;;;;;;;;;;;;;;5078048;28;19916;-22
2022/03/12 08:48:40;;;;;;;;;;;;;;;;;;5077734;28;19922;-22
2022/03/12 08:51:06;;;;;;;;;;;;;;;;;;5077986;28;19999;-23
2022/03/12 08:53:33;;;;;;;;;;;;;;;;;;5059849;28;19913;-22
2022/03/12 08:56:02;;;;;;;;;;;;;;;;;;5077593;28;19909;-22
2022/03/12 08:58:29;;;;;;;;;;;;;;;;;;5078086;28;19912;-24
2022/03/12 09:00:55;;;;;;;;;;;;;;;;;;5077526;28;19970;-24
2022/03/12 09:03:21;;;;;;;;;;;;;;;;;;5077493;28;19913;-23
2022/03/12 09:05:47;;;;;;;;;;;;;;;;;;5077641;28;20250;-22
2022/03/12 09:08:13;;;;;;;;;;;;;;;;;;5077654;28;19908;-23
2022/03/12 09:10:39;;;;;;;;;;;;;;;;;;5059553;28;19916;-26
2022/03/12 09:13:06;;;;;;;;;;;;;;;;;;5059489;28;19971;-21
2022/03/12 09:15:35;;;;;;;;;;;;;;;;;;5060227;28;19923;-24
2022/03/12 09:18:02;;;;;;;;;;;;;;;;;;5077487;28;19999;-24
2022/03/12 09:20:28;;;;;;;;;;;;;;;;;;5077132;28;19963;-22
2022/03/12 09:22:54;;;;;;;;;;;;;;;;;;5077200;28;19908;-22
2022/03/12 09:25:20;;;;;;;;;;;;;;;;;;5077406;28;20319;-22
2022/03/12 09:27:46;;;;;;;;;;;;;;;;;;5077330;28;19939;-22
2022/03/12 09:30:13;;;;;;;;;;;;;;;;;;5076887;28;19942;-22
2022/03/12 09:32:39;;;;;;;;;;;;;;;;;;5076911;28;19940;-23
2022/03/12 09:35:05;;;;;;;;;;;;;;;;;;5076424;28;19912;-22
2022/03/12 09:37:32;;;;;;;;;;;;;;;;;;5076702;28;19975;-22
2022/03/12 09:39:59;;;;;;;;;;;;;;;;;;5077122;28;19936;-25
2022/03/12 09:42:28;;;;;;;;;;;;;;;;;;5076988;28;20235;-26
2022/03/12 09:44:54;;;;;;;;;;;;;;;;;;5059141;28;19913;-22
2022/03/12 09:47:20;;;;;;;;;;;;;;;;;;5059135;28;20386;-22
2022/03/12 09:49:46;;;;;;;;;;;;;;;;;;5058879;28;20428;-22
2022/03/12 09:52:12;;;;;;;;;;;;;;;;;;5076794;28;19909;-24
2022/03/12 09:54:38;;;;;;;;;;;;;;;;;;5076662;28;20362;-22
2022/03/12 09:57:04;;;;;;;;;;;;;;;;;;5076393;28;19912;-23
2022/03/12 09:59:30;;;;;;;;;;;;;;;;;;5076539;28;19909;-23
2022/03/12 10:01:57;;;;;;;;;;;;;;;;;;5076479;28;19919;-22
2022/03/12 10:04:24;;;;;;;;;;;;;;;;;;5076708;28;19920;-22
2022/03/12 10:06:50;;;;;;;;;;;;;;;;;;5076342;28;20373;-22
2022/03/12 10:09:16;;;;;;;;;;;;;;;;;;5076161;28;19999;-22
2022/03/12 10:11:42;;;;;;;;;;;;;;;;;;5076141;28;19959;-22
2022/03/12 10:14:08;;;;;;;;;;;;;;;;;;5076859;28;19908;-26
2022/03/12 10:16:34;;;;;;;;;;;;;;;;;;5076152;28;20004;-23
2022/03/12 10:18:59;;;;;;;;;;;;;;;;;;5076281;28;19940;-25
2022/03/12 10:21:25;;;;;;;;;;;;;;;;;;5058372;28;19947;-25
2022/03/12 10:23:52;;;;;;;;;;;;;;;;;;5075816;28;19959;-22
2022/03/12 10:26:18;;;;;;;;;;;;;;;;;;5075729;28;19923;-22
2022/03/12 10:28:44;;;;;;;;;;;;;;;;;;5075744;28;19923;-24
2022/03/12 10:31:12;;;;;;;;;;;;;;;;;;5076230;28;19925;-22
2022/03/12 10:33:38;;;;;;;;;;;;;;;;;;5075849;28;20208;-22
2022/03/12 10:36:04;;;;;;;;;;;;;;;;;;5075544;28;20252;-22
2022/03/12 10:38:30;;;;;;;;;;;;;;;;;;5075584;28;19912;-22
2022/03/12 10:40:56;;;;;;;;;;;;;;;;;;5075688;28;20420;-22
2022/03/12 10:43:22;;;;;;;;;;;;;;;;;;5057970;28;19909;-23
2022/03/12 10:45:48;;;;;;;;;;;;;;;;;;5075201;28;19919;-22
2022/03/12 10:48:19;;;;;;;;;;;;;;;;;;5075076;28;20278;-21
2022/03/12 10:50:45;;;;;;;;;;;;;;;;;;5075198;28;19931;-22
2022/03/12 10:53:11;;;;;;;;;;;;;;;;;;5075562;28;19999;-23
2022/03/12 10:55:39;;;;;;;;;;;;;;;;;;5075487;28;19916;-23
2022/03/12 10:58:06;;;;;;;;;;;;;;;;;;5075919;28;19927;-23
2022/03/12 11:00:32;;;;;;;;;;;;;;;;;;5075068;28;20391;-23
2022/03/12 11:02:58;;;;;;;;;;;;;;;;;;5075075;28;20003;-22
2022/03/12 11:05:27;;;;;;;;;;;;;;;;;;5075321;28;20024;-25
2022/03/12 11:07:53;;;;;;;;;;;;;;;;;;5075516;28;19920;-24
2022/03/12 11:10:19;;;;;;;;;;;;;;;;;;5075119;28;19921;-22
2022/03/12 11:12:46;;;;;;;;;;;;;;;;;;5057392;28;20271;-22
2022/03/12 11:15:15;;;;;;;;;;;;;;;;;;5075393;28;19912;-22
2022/03/12 11:17:43;;;;;;;;;;;;;;;;;;5075554;28;19927;-23
2022/03/12 11:20:16;;;;;;;;;;;;;;;;;;5074900;28;19915;-23
2022/03/12 11:22:42;;;;;;;;;;;;;;;;;;5057247;28;19912;-22
2022/03/12 11:25:09;;;;;;;;;;;;;;;;;;5074897;28;20348;-23
2022/03/12 11:27:35;;;;;;;;;;;;;;;;;;5074904;28;19908;-22
2022/03/12 11:30:01;;;;;;;;;;;;;;;;;;5074683;28;19939;-23
2022/03/12 11:32:30;;;;;;;;;;;;;;;;;;5074715;28;19912;-23
2022/03/12 11:34:57;;;;;;;;;;;;;;;;;;5075182;28;20393;-22
2022/03/12 11:37:23;;;;;;;;;;;;;;;;;;5075002;28;19928;-24
2022/03/12 11:39:49;;;;;;;;;;;;;;;;;;5074954;28;19912;-22
2022/03/12 11:42:15;;;;;;;;;;;;;;;;;;5074957;28;20343;-22
2022/03/12 11:44:41;;;;;;;;;;;;;;;;;;5057190;28;19908;-22
2022/03/12 11:47:07;;;;;;;;;;;;;;;;;;5074805;28;19924;-24
2022/03/12 11:49:34;;;;;;;;;;;;;;;;;;5074835;28;20305;-26
2022/03/12 11:52:00;;;;;;;;;;;;;;;;;;5075277;28;20057;-23
2022/03/12 11:54:26;;;;;;;;;;;;;;;;;;5074881;28;19938;-22
2022/03/12 11:56:52;;;;;;;;;;;;;;;;;;5075440;28;19913;-22
2022/03/12 11:59:18;;;;;;;;;;;;;;;;;;5078262;28;19999;-24
2022/03/12 12:01:44;;;;;;;;;;;;;;;;;;5061038;28;19920;-26
2022/03/12 12:04:10;;;;;;;;;;;;;;;;;;5078624;28;19908;-25
2022/03/12 12:06:38;;;;;;;;;;;;;;;;;;5078592;28;19913;-25
2022/03/12 12:09:04;;;;;;;;;;;;;;;;;;5078372;28;19919;-22
2022/03/12 12:11:34;;;;;;;;;;;;;;;;;;5078523;28;19999;-22
2022/03/12 12:14:00;;;;;;;;;;;;;;;;;;5078389;28;19991;-24
2022/03/12 12:16:29;;;;;;;;;;;;;;;;;;5078511;28;20259;-23
2022/03/12 12:18:55;;;;;;;;;;;;;;;;;;5078533;28;20327;-24
2022/03/12 12:21:21;;;;;;;;;;;;;;;;;;5060587;28;19909;-26
2022/03/12 12:23:47;;;;;;;;;;;;;;;;;;5078391;28;19913;-22
2022/03/12 12:26:13;;;;;;;;;;;;;;;;;;5078223;28;19913;-23
2022/03/12 12:28:39;;;;;;;;;;;;;;;;;;5078232;28;19912;-26
2022/03/12 12:31:05;;;;;;;;;;;;;;;;;;5078095;28;19916;-27
2022/03/12 12:33:32;;;;;;;;;;;;;;;;;;5078023;28;19912;-22
2022/03/12 12:35:57;;;;;;;;;;;;;;;;;;5078087;28;19921;-22
2022/03/12 12:38:24;;;;;;;;;;;;;;;;;;5078519;28;19915;-23
2022/03/12 12:40:50;;;;;;;;;;;;;;;;;;5078125;28;19912;-27
2022/03/12 12:43:18;;;;;;;;;;;;;;;;;;5077883;28;19980;-22
2022/03/12 12:45:44;;;;;;;;;;;;;;;;;;5078100;28;19952;-22
2022/03/12 12:48:10;;;;;;;;;;;;;;;;;;5077970;28;20267;-22
2022/03/12 12:50:36;;;;;;;;;;;;;;;;;;5077881;28;19912;-22
2022/03/12 12:53:02;;;;;;;;;;;;;;;;;;5077523;28;19920;-22
2022/03/12 12:55:28;;;;;;;;;;;;;;;;;;5077587;28;20267;-24
2022/03/12 12:57:54;;;;;;;;;;;;;;;;;;5078135;28;19919;-22
2022/03/12 13:00:20;;;;;;;;;;;;;;;;;;5077593;28;19970;-22
2022/03/12 13:02:46;;;;;;;;;;;;;;;;;;5077426;28;19919;-22
2022/03/12 13:05:15;;;;;;;;;;;;;;;;;;5077552;28;20259;-22
2022/03/12 13:07:41;;;;;;;;;;;;;;;;;;5077482;28;19923;-22
2022/03/12 13:10:07;;;;;;;;;;;;;;;;;;5076370;28;19920;-22
2022/03/12 13:12:33;;;;;;;;;;;;;;;;;;5077669;28;20343;-22
2022/03/12 13:14:59;;;;;;;;;;;;;;;;;;5077683;28;19916;-23
2022/03/12 13:17:25;;;;;;;;;;;;;;;;;;5077257;28;20003;-21
2022/03/12 13:19:51;;;;;;;;;;;;;;;;;;5077643;28;19912;-22
2022/03/12 13:22:17;;;;;;;;;;;;;;;;;;5077160;28;20403;-23
2022/03/12 13:24:43;;;;;;;;;;;;;;;;;;5078210;28;20241;-23
2022/03/12 13:27:09;;;;;;;;;;;;;;;;;;5077379;28;19952;-25
2022/03/12 13:29:35;;;;;;;;;;;;;;;;;;5077013;28;20018;-21
2022/03/12 13:32:01;;;;;;;;;;;;;;;;;;5059198;28;19912;-21
2022/03/12 13:34:27;;;;;;;;;;;;;;;;;;5059196;28;20007;-22
2022/03/12 13:36:54;;;;;;;;;;;;;;;;;;5076635;28;19920;-21
2022/03/12 13:39:20;;;;;;;;;;;;;;;;;;5076804;28;19908;-23
2022/03/12 13:41:46;;;;;;;;;;;;;;;;;;5076783;28;19912;-22
2022/03/12 13:44:12;;;;;;;;;;;;;;;;;;5076765;28;19915;-22
2022/03/12 13:46:38;;;;;;;;;;;;;;;;;;5076718;28;19916;-21
2022/03/12 13:49:04;;;;;;;;;;;;;;;;;;5076934;28;20297;-22
2022/03/12 13:51:30;;;;;;;;;;;;;;;;;;5076659;28;19913;-22
2022/03/12 13:53:56;;;;;;;;;;;;;;;;;;5059062;28;19913;-22
2022/03/12 13:56:24;;;;;;;;;;;;;;;;;;5076652;28;20310;-22
2022/03/12 13:58:50;;;;;;;;;;;;;;;;;;5076614;28;19912;-22
2022/03/12 14:01:16;;;;;;;;;;;;;;;;;;5076861;28;20056;-22
2022/03/12 14:03:42;;;;;;;;;;;;;;;;;;5076777;28;19912;-22
2022/03/12 14:06:08;;;;;;;;;;;;;;;;;;5076427;28;19913;-21
2022/03/12 14:08:34;;;;;;;;;;;;;;;;;;5076914;28;20323;-21
2022/03/12 14:11:07;;;;;;;;;;;;;;;;;;5076539;28;20453;-27
2022/03/12 14:13:33;;;;;;;;;;;;;;;;;;5058637;28;20399;-22
2022/03/12 14:15:59;;;;;;;;;;;;;;;;;;5076475;28;20058;-23
2022/03/12 14:18:27;;;;;;;;;;;;;;;;;;5076194;28;19938;-22
2022/03/12 14:20:54;;;;;;;;;;;;;;;;;;5076057;28;19958;-23
2022/03/12 14:23:22;;;;;;;;;;;;;;;;;;5076304;28;19970;-23
2022/03/12 14:25:49;;;;;;;;;;;;;;;;;;5075738;28;19942;-21
2022/03/12 14:28:15;;;;;;;;;;;;;;;;;;5076594;28;19919;-21
2022/03/12 14:30:41;;;;;;;;;;;;;;;;;;5075944;28;20003;-22
2022/03/12 14:33:07;;;;;;;;;;;;;;;;;;5075667;28;19916;-22
2022/03/12 14:35:35;;;;;;;;;;;;;;;;;;5075609;28;19916;-21
2022/03/12 14:38:02;;;;;;;;;;;;;;;;;;5075779;28;19908;-22
2022/03/12 14:40:28;;;;;;;;;;;;;;;;;;5075923;28;20403;-22
2022/03/12 14:43:00;;;;;;;;;;;;;;;;;;5075603;28;19997;-21
2022/03/12 14:45:26;;;;;;;;;;;;;;;;;;5075588;28;19912;-22
2022/03/12 14:47:52;;;;;;;;;;;;;;;;;;5058902;28;20050;-23
2022/03/12 14:50:20;;;;;;;;;;;;;;;;;;5075874;28;19979;-20
2022/03/12 14:52:48;;;;;;;;;;;;;;;;;;5057948;28;20260;-21
2022/03/12 14:55:14;;;;;;;;;;;;;;;;;;5075385;28;19909;-24
2022/03/12 14:57:40;;;;;;;;;;;;;;;;;;5075639;28;19917;-23
2022/03/12 15:00:06;;;;;;;;;;;;;;;;;;5075926;28;19924;-26
2022/03/12 15:02:42;;;;;;;;;;;;;;;;;;5075315;28;20007;-21
2022/03/12 15:05:08;;;;;;;;;;;;;;;;;;5057760;28;19962;-23
2022/03/12 15:07:34;;;;;;;;;;;;;;;;;;5075278;28;19951;-23
2022/03/12 15:10:00;;;;;;;;;;;;;;;;;;5057465;28;19986;-22
2022/03/12 15:12:27;;;;;;;;;;;;;;;;;;5075354;28;19908;-24
2022/03/12 15:14:54;;;;;;;;;;;;;;;;;;5075453;28;19923;-22
2022/03/12 15:17:21;;;;;;;;;;;;;;;;;;5057500;28;20360;-23
2022/03/12 15:19:47;;;;;;;;;;;;;;;;;;5075376;28;19916;-22
2022/03/12 15:22:13;;;;;;;;;;;;;;;;;;5075072;28;19932;-22
2022/03/12 15:24:39;;;;;;;;;;;;;;;;;;5075051;28;19912;-21
2022/03/12 15:27:10;;;;;;;;;;;;;;;;;;5075422;28;20043;-23
2022/03/12 15:29:36;;;;;;;;;;;;;;;;;;5075011;28;19916;-21
2022/03/12 15:32:02;;;;;;;;;;;;;;;;;;5057084;28;19970;-22
2022/03/12 15:34:28;;;;;;;;;;;;;;;;;;5074721;28;19920;-23
2022/03/12 15:36:54;;;;;;;;;;;;;;;;;;5074926;28;19928;-21
2022/03/12 15:39:20;;;;;;;;;;;;;;;;;;5075267;28;19931;-23
2022/03/12 15:41:46;;;;;;;;;;;;;;;;;;5075024;28;19965;-21
2022/03/12 15:44:12;;;;;;;;;;;;;;;;;;5075045;28;20327;-21
2022/03/12 15:46:39;;;;;;;;;;;;;;;;;;5074807;28;20003;-21
2022/03/12 15:49:06;;;;;;;;;;;;;;;;;;5074843;28;20050;-21
2022/03/12 15:51:33;;;;;;;;;;;;;;;;;;5074878;28;20347;-22
2022/03/12 15:53:59;;;;;;;;;;;;;;;;;;5074716;28;19915;-24
2022/03/12 15:56:25;;;;;;;;;;;;;;;;;;5075353;28;19912;-24
2022/03/12 15:58:51;;;;;;;;;;;;;;;;;;5074841;28;20258;-22
2022/03/12 16:01:18;;;;;;;;;;;;;;;;;;5075349;28;19974;-21
2022/03/12 16:03:44;;;;;;;;;;;;;;;;;;5074656;28;19913;-21
2022/03/12 16:06:10;;;;;;;;;;;;;;;;;;5075339;28;19913;-20
2022/03/12 16:08:38;;;;;;;;;;;;;;;;;;5074730;28;19908;-22
2022/03/12 16:11:04;;;;;;;;;;;;;;;;;;5074571;28;19926;-22
2022/03/12 16:13:30;;;;;;;;;;;;;;;;;;5074653;28;20007;-25
2022/03/12 16:15:58;;;;;;;;;;;;;;;;;;5057010;28;19912;-22
2022/03/12 16:18:24;;;;;;;;;;;;;;;;;;5074723;28;19908;-22
2022/03/12 16:20:56;;;;;;;;;;;;;;;;;;5074552;28;20396;-21
2022/03/12 16:23:24;;;;;;;;;;;;;;;;;;5075084;28;19920;-22
2022/03/12 16:25:52;;;;;;;;;;;;;;;;;;5074867;28;19916;-21
2022/03/12 16:28:18;;;;;;;;;;;;;;;;;;5074502;28;19920;-21
2022/03/12 16:30:44;;;;;;;;;;;;;;;;;;5074762;28;20273;-21
2022/03/12 16:33:10;;;;;;;;;;;;;;;;;;5074480;28;20015;-22
2022/03/12 16:35:36;;;;;;;;;;;;;;;;;;5074607;28;20236;-21
2022/03/12 16:38:02;;;;;;;;;;;;;;;;;;5074498;28;19919;-22
2022/03/12 16:40:34;;;;;;;;;;;;;;;;;;5074406;28;19955;-22